createdAt,value
2022-10-01T00:01:16.550Z,18.87
2022-10-01T00:03:43.615Z,18.42
2022-10-01T00:06:18.036Z,18.29
2022-10-01T00:08:49.059Z,18.17
2022-10-01T00:11:21.636Z,17.91
2022-10-01T00:13:49.623Z,17.90
2022-10-01T00:16:27.874Z,17.92
2022-10-01T00:18:55.701Z,17.97
2022-10-01T00:21:28.396Z,17.96
2022-10-01T00:23:56.746Z,17.80
2022-10-01T00:26:27.341Z,17.76
2022-10-01T00:28:57.395Z,17.92
2022-10-01T00:31:25.720Z,17.75
2022-10-01T00:33:54.089Z,17.85
2022-10-01T00:36:21.838Z,17.97
2022-10-01T00:38:48.535Z,17.87
2022-10-01T00:41:16.544Z,17.75
2022-10-01T00:43:47.061Z,17.66
2022-10-01T00:46:24.388Z,17.58
2022-10-01T00:49:15.210Z,17.45
2022-10-01T00:51:47.081Z,17.37
2022-10-01T00:54:18.977Z,17.41
2022-10-01T00:56:47.201Z,17.58
2022-10-01T00:59:16.362Z,17.94
2022-10-01T01:01:43.372Z,17.77
2022-10-01T01:04:16.703Z,17.79
2022-10-01T01:06:57.913Z,17.92
2022-10-01T01:09:31.296Z,17.61
2022-10-01T01:12:42.691Z,17.34
2022-10-01T01:15:15.208Z,17.37
2022-10-01T01:18:06.184Z,17.05
2022-10-01T01:20:43.233Z,17.22
2022-10-01T01:23:16.263Z,17.15
2022-10-01T01:26:02.946Z,17.17
2022-10-01T01:28:44.636Z,17.41
2022-10-01T01:31:18.337Z,17.19
2022-10-01T01:33:48.199Z,17.36
2022-10-01T01:36:19.408Z,17.35
2022-10-01T01:38:57.751Z,17.35
2022-10-01T01:41:29.334Z,17.26
2022-10-01T01:44:01.092Z,17.11
2022-10-01T01:46:33.298Z,17.01
2022-10-01T01:49:03.760Z,16.84
2022-10-01T01:51:33.547Z,16.81
2022-10-01T01:54:00.519Z,17.14
2022-10-01T01:56:27.621Z,17.16
2022-10-01T01:58:54.329Z,17.00
2022-10-01T02:01:39.645Z,16.94
2022-10-01T02:04:33.610Z,16.88
2022-10-01T02:07:21.971Z,17.24
2022-10-01T02:10:00.379Z,17.28
2022-10-01T02:12:56.240Z,17.30
2022-10-01T02:15:37.119Z,17.34
2022-10-01T02:18:27.763Z,17.28
2022-10-01T02:21:17.455Z,17.23
2022-10-01T02:23:59.040Z,17.28
2022-10-01T02:26:28.243Z,17.12
2022-10-01T02:28:59.646Z,17.50
2022-10-01T02:31:29.560Z,17.61
2022-10-01T02:33:59.440Z,17.49
2022-10-01T02:36:29.851Z,17.44
2022-10-01T02:39:00.610Z,17.42
2022-10-01T02:41:32.918Z,17.53
2022-10-01T02:44:05.191Z,17.68
2022-10-01T02:47:07.995Z,17.87
2022-10-01T02:49:36.538Z,17.90
2022-10-01T02:52:21.741Z,18.21
2022-10-01T02:55:04.608Z,18.26
2022-10-01T02:57:32.495Z,18.30
2022-10-01T03:00:15.388Z,18.41
2022-10-01T03:02:42.578Z,18.28
2022-10-01T03:05:09.514Z,18.15
2022-10-01T03:07:36.467Z,18.25
2022-10-01T03:10:05.263Z,18.39
2022-10-01T03:12:32.095Z,18.19
2022-10-01T03:14:58.806Z,18.16
2022-10-01T03:17:25.765Z,18.02
2022-10-01T03:19:52.562Z,17.57
2022-10-01T03:22:22.766Z,17.42
2022-10-01T03:24:53.734Z,17.09
2022-10-01T03:27:21.436Z,17.21
2022-10-01T03:29:48.519Z,17.43
2022-10-01T03:32:15.846Z,17.47
2022-10-01T03:34:42.912Z,17.53
2022-10-01T03:37:10.293Z,17.44
2022-10-01T03:39:37.241Z,17.34
2022-10-01T03:42:06.039Z,17.18
2022-10-01T03:44:33.795Z,16.76
2022-10-01T03:47:00.802Z,16.56
2022-10-01T03:49:28.351Z,16.49
2022-10-01T03:51:55.463Z,16.27
2022-10-01T03:54:22.691Z,16.28
2022-10-01T03:56:49.430Z,16.24
2022-10-01T03:59:16.202Z,16.28
2022-10-01T04:01:43.139Z,16.45
2022-10-01T04:04:10.093Z,16.65
2022-10-01T04:06:36.887Z,16.80
2022-10-01T04:09:03.927Z,16.50
2022-10-01T04:11:30.835Z,16.42
2022-10-01T04:13:58.046Z,16.16
2022-10-01T04:16:25.289Z,16.13
2022-10-01T04:18:52.065Z,16.19
2022-10-01T04:21:19.265Z,16.30
2022-10-01T04:23:45.964Z,16.28
2022-10-01T04:26:12.702Z,16.39
2022-10-01T04:28:39.334Z,16.37
2022-10-01T04:31:24.545Z,16.50
2022-10-01T04:33:56.401Z,16.27
2022-10-01T04:36:25.170Z,16.55
2022-10-01T04:39:00.934Z,16.67
2022-10-01T04:41:31.007Z,16.68
2022-10-01T04:44:01.610Z,16.62
2022-10-01T04:46:30.191Z,16.65
2022-10-01T04:48:57.567Z,16.84
2022-10-01T04:51:24.695Z,16.66
2022-10-01T04:53:51.380Z,16.93
2022-10-01T04:56:18.189Z,16.99
2022-10-01T04:58:44.857Z,17.00
2022-10-01T05:01:12.764Z,16.99
2022-10-01T05:03:39.943Z,17.22
2022-10-01T05:06:06.837Z,17.37
2022-10-01T05:08:33.503Z,17.37
2022-10-01T05:11:00.740Z,17.46
2022-10-01T05:13:30.363Z,17.56
2022-10-01T05:15:58.119Z,17.73
2022-10-01T05:18:24.993Z,17.33
2022-10-01T05:20:51.902Z,17.16
2022-10-01T05:23:18.559Z,17.33
2022-10-01T05:25:47.028Z,17.92
2022-10-01T05:28:17.243Z,18.38
2022-10-01T05:30:46.738Z,18.80
2022-10-01T05:33:13.524Z,18.81
2022-10-01T05:35:41.384Z,19.10
2022-10-01T05:38:08.069Z,19.31
2022-10-01T05:40:34.743Z,19.52
2022-10-01T05:43:03.160Z,19.76
2022-10-01T05:45:31.371Z,19.87
2022-10-01T05:48:03.192Z,19.98
2022-10-01T05:50:32.030Z,20.19
2022-10-01T05:53:00.173Z,20.00
2022-10-01T05:55:31.870Z,19.84
2022-10-01T05:58:01.406Z,19.50
2022-10-01T06:00:29.263Z,20.83
2022-10-01T06:02:58.185Z,21.44
2022-10-01T06:05:25.702Z,21.45
2022-10-01T06:07:53.574Z,21.27
2022-10-01T06:10:21.727Z,21.74
2022-10-01T06:12:48.926Z,21.70
2022-10-01T06:15:16.808Z,22.00
2022-10-01T06:17:45.441Z,21.60
2022-10-01T06:20:14.423Z,20.71
2022-10-01T06:22:43.126Z,20.69
2022-10-01T06:25:15.336Z,21.11
2022-10-01T06:27:42.430Z,21.47
2022-10-01T06:30:09.775Z,21.45
2022-10-01T06:32:36.933Z,20.83
2022-10-01T06:35:04.382Z,21.36
2022-10-01T06:37:31.067Z,22.16
2022-10-01T06:39:57.874Z,22.06
2022-10-01T06:42:24.643Z,22.39
2022-10-01T06:44:51.331Z,21.61
2022-10-01T06:47:18.042Z,22.07
2022-10-01T06:49:47.613Z,22.40
2022-10-01T06:52:33.519Z,22.73
2022-10-01T06:55:01.477Z,23.72
2022-10-01T06:57:29.275Z,23.90
2022-10-01T06:59:56.106Z,24.44
2022-10-01T07:02:28.939Z,24.85
2022-10-01T07:04:59.258Z,24.50
2022-10-01T07:07:35.363Z,24.45
2022-10-01T07:10:03.058Z,24.75
2022-10-01T07:12:29.726Z,24.50
2022-10-01T07:14:56.540Z,25.11
2022-10-01T07:17:23.345Z,24.73
2022-10-01T07:19:50.004Z,24.20
2022-10-01T07:22:18.179Z,24.17
2022-10-01T07:24:47.844Z,24.98
2022-10-01T07:27:14.852Z,25.02
2022-10-01T07:29:44.544Z,25.29
2022-10-01T07:32:11.513Z,25.57
2022-10-01T07:34:42.843Z,25.09
2022-10-01T07:37:09.873Z,24.81
2022-10-01T07:39:37.981Z,25.82
2022-10-01T07:42:04.947Z,26.02
2022-10-01T07:44:31.666Z,26.55
2022-10-01T07:46:58.375Z,26.66
2022-10-01T07:49:25.634Z,26.58
2022-10-01T07:51:54.490Z,26.03
2022-10-01T07:54:22.589Z,26.10
2022-10-01T07:56:52.063Z,26.30
2022-10-01T07:59:19.217Z,26.90
2022-10-01T08:01:54.823Z,26.25
2022-10-01T08:04:40.570Z,26.68
2022-10-01T08:07:08.774Z,27.18
2022-10-01T08:09:35.703Z,28.26
2022-10-01T08:12:03.089Z,27.57
2022-10-01T08:14:30.675Z,27.80
2022-10-01T08:16:57.990Z,28.68
2022-10-01T08:19:25.592Z,28.72
2022-10-01T08:21:52.971Z,28.72
2022-10-01T08:24:20.294Z,28.16
2022-10-01T08:26:53.256Z,28.48
2022-10-01T08:29:20.489Z,28.52
2022-10-01T08:31:47.602Z,28.66
2022-10-01T08:34:14.775Z,27.95
2022-10-01T08:36:41.509Z,28.50
2022-10-01T08:39:08.269Z,27.92
2022-10-01T08:41:56.111Z,27.91
2022-10-01T08:44:44.309Z,27.75
2022-10-01T08:47:17.135Z,28.35
2022-10-01T08:49:54.836Z,29.39
2022-10-01T08:52:33.883Z,28.63
2022-10-01T08:55:14.569Z,28.88
2022-10-01T08:57:51.685Z,29.01
2022-10-01T09:00:19.343Z,28.13
2022-10-01T09:02:47.003Z,28.16
2022-10-01T09:05:25.501Z,29.17
2022-10-01T09:08:15.339Z,28.19
2022-10-01T09:11:00.885Z,28.88
2022-10-01T09:13:50.118Z,28.11
2022-10-01T09:16:50.092Z,27.32
2022-10-01T09:19:19.745Z,27.73
2022-10-01T09:21:57.661Z,27.83
2022-10-01T09:24:38.462Z,27.68
2022-10-01T09:27:13.910Z,28.32
2022-10-01T09:29:46.935Z,28.56
2022-10-01T09:32:19.572Z,29.78
2022-10-01T09:34:47.438Z,30.88
2022-10-01T09:37:28.085Z,30.89
2022-10-01T09:40:03.820Z,29.51
2022-10-01T09:42:30.702Z,29.99
2022-10-01T09:44:57.975Z,30.32
2022-10-01T09:47:28.321Z,30.71
2022-10-01T09:49:55.578Z,29.99
2022-10-01T09:52:34.646Z,30.59
2022-10-01T09:55:16.612Z,31.38
2022-10-01T09:57:50.663Z,31.76
2022-10-01T10:00:23.723Z,31.60
2022-10-01T10:02:52.267Z,32.13
2022-10-01T10:05:25.607Z,32.14
2022-10-01T10:07:57.631Z,32.40
2022-10-01T10:10:37.038Z,32.91
2022-10-01T10:13:10.196Z,32.80
2022-10-01T10:15:50.908Z,32.81
2022-10-01T10:18:27.193Z,33.13
2022-10-01T10:20:55.123Z,32.47
2022-10-01T10:23:29.063Z,32.40
2022-10-01T10:25:56.709Z,32.57
2022-10-01T10:28:24.912Z,31.63
2022-10-01T10:30:55.121Z,31.62
2022-10-01T10:33:26.351Z,32.40
2022-10-01T10:36:06.491Z,32.58
2022-10-01T10:38:35.300Z,33.37
2022-10-01T10:41:04.009Z,32.98
2022-10-01T10:43:36.828Z,33.49
2022-10-01T10:46:04.549Z,33.88
2022-10-01T10:48:36.843Z,33.52
2022-10-01T10:51:05.763Z,33.26
2022-10-01T10:53:46.423Z,31.63
2022-10-01T10:56:23.005Z,31.73
2022-10-01T10:58:51.801Z,31.02
2022-10-01T11:01:28.615Z,31.23
2022-10-01T11:04:01.114Z,31.81
2022-10-01T11:06:28.424Z,31.02
2022-10-01T11:09:07.780Z,31.38
2022-10-01T11:11:34.408Z,31.73
2022-10-01T11:14:31.713Z,31.63
2022-10-01T11:17:43.556Z,32.08
2022-10-01T11:20:20.801Z,33.08
2022-10-01T11:23:23.093Z,32.94
2022-10-01T11:26:19.054Z,32.91
2022-10-01T11:28:57.876Z,33.27
2022-10-01T11:31:38.380Z,33.61
2022-10-01T11:34:37.865Z,33.21
2022-10-01T11:37:24.368Z,32.73
2022-10-01T11:39:56.720Z,32.44
2022-10-01T11:42:34.839Z,31.90
2022-10-01T11:45:09.765Z,31.82
2022-10-01T11:47:44.378Z,31.90
2022-10-01T11:50:25.595Z,32.28
2022-10-01T11:52:59.939Z,32.95
2022-10-01T11:55:51.595Z,32.88
2022-10-01T11:58:48.698Z,32.52
2022-10-01T12:01:24.376Z,32.20
2022-10-01T12:03:54.035Z,31.98
2022-10-01T12:06:32.989Z,31.35
2022-10-01T12:09:20.161Z,31.07
2022-10-01T12:12:17.348Z,30.79
2022-10-01T12:15:06.945Z,30.62
2022-10-01T12:17:52.590Z,30.75
2022-10-01T12:20:40.936Z,30.82
2022-10-01T12:23:14.775Z,30.89
2022-10-01T12:25:59.332Z,30.67
2022-10-01T12:28:46.763Z,30.70
2022-10-01T12:31:32.992Z,30.47
2022-10-01T12:34:15.185Z,30.34
2022-10-01T12:37:04.422Z,29.89
2022-10-01T12:39:50.578Z,29.84
2022-10-01T12:42:31.385Z,29.70
2022-10-01T12:45:21.963Z,29.66
2022-10-01T12:47:57.771Z,29.85
2022-10-01T12:50:57.324Z,30.03
2022-10-01T12:53:30.281Z,29.99
2022-10-01T12:56:12.281Z,30.29
2022-10-01T12:59:07.891Z,30.94
2022-10-01T13:01:51.903Z,31.27
2022-10-01T13:04:40.507Z,30.86
2022-10-01T13:07:27.233Z,30.56
2022-10-01T13:10:03.007Z,30.22
2022-10-01T13:13:07.939Z,29.98
2022-10-01T13:15:38.121Z,29.79
2022-10-01T13:18:23.327Z,29.76
2022-10-01T13:21:20.776Z,29.60
2022-10-01T13:23:58.942Z,29.61
2022-10-01T13:26:35.085Z,30.03
2022-10-01T13:29:38.240Z,30.43
2022-10-01T13:32:26.069Z,30.66
2022-10-01T13:34:53.292Z,30.31
2022-10-01T13:37:33.787Z,30.33
2022-10-01T13:40:01.309Z,30.34
2022-10-01T13:42:42.204Z,30.18
2022-10-01T13:45:31.845Z,30.06
2022-10-01T13:48:07.953Z,30.02
2022-10-01T13:50:34.998Z,29.84
2022-10-01T13:53:23.157Z,29.78
2022-10-01T13:55:50.773Z,29.78
2022-10-01T13:58:29.694Z,29.69
2022-10-01T14:01:00.217Z,29.60
2022-10-01T14:03:53.626Z,29.45
2022-10-01T14:06:47.322Z,29.50
2022-10-01T14:09:31.623Z,29.58
2022-10-01T14:12:26.782Z,29.43
2022-10-01T14:15:15.754Z,29.36
2022-10-01T14:17:44.783Z,29.05
2022-10-01T14:20:24.894Z,29.14
2022-10-01T14:23:13.213Z,29.05
2022-10-01T14:26:03.674Z,29.10
2022-10-01T14:28:48.973Z,29.13
2022-10-01T14:31:37.454Z,28.88
2022-10-01T14:34:21.910Z,28.80
2022-10-01T14:36:50.983Z,28.78
2022-10-01T14:39:23.854Z,28.99
2022-10-01T14:41:53.560Z,29.05
2022-10-01T14:44:29.100Z,29.12
2022-10-01T14:46:58.425Z,29.21
2022-10-01T14:49:27.747Z,29.16
2022-10-01T14:52:20.458Z,29.14
2022-10-01T14:55:11.948Z,29.08
2022-10-01T14:57:42.745Z,29.14
2022-10-01T15:00:21.159Z,28.92
2022-10-01T15:02:52.263Z,28.83
2022-10-01T15:05:26.333Z,28.56
2022-10-01T15:07:53.221Z,28.40
2022-10-01T15:10:24.058Z,28.23
2022-10-01T15:12:52.904Z,28.10
2022-10-01T15:15:20.679Z,27.94
2022-10-01T15:17:49.138Z,27.74
2022-10-01T15:20:17.436Z,27.72
2022-10-01T15:22:47.185Z,27.67
2022-10-01T15:25:21.936Z,27.64
2022-10-01T15:27:50.499Z,27.51
2022-10-01T15:30:18.559Z,27.57
2022-10-01T15:32:49.113Z,27.32
2022-10-01T15:35:20.917Z,27.35
2022-10-01T15:37:51.611Z,27.17
2022-10-01T15:40:27.096Z,27.32
2022-10-01T15:43:09.065Z,27.13
2022-10-01T15:45:36.059Z,27.08
2022-10-01T15:48:03.008Z,27.03
2022-10-01T15:50:36.563Z,27.03
2022-10-01T15:53:15.343Z,26.99
2022-10-01T15:55:52.558Z,26.81
2022-10-01T15:58:35.744Z,26.87
2022-10-01T16:01:09.690Z,26.73
2022-10-01T16:03:53.840Z,26.69
2022-10-01T16:06:27.245Z,26.67
2022-10-01T16:09:11.951Z,26.65
2022-10-01T16:12:00.538Z,26.71
2022-10-01T16:14:36.755Z,26.75
2022-10-01T16:17:18.809Z,26.52
2022-10-01T16:19:53.628Z,26.51
2022-10-01T16:22:21.720Z,26.51
2022-10-01T16:25:01.580Z,26.45
2022-10-01T16:27:45.998Z,26.40
2022-10-01T16:30:23.060Z,26.47
2022-10-01T16:32:49.945Z,26.51
2022-10-01T16:35:23.206Z,26.36
2022-10-01T16:37:52.030Z,26.30
2022-10-01T16:40:20.984Z,26.14
2022-10-01T16:42:51.942Z,26.18
2022-10-01T16:45:24.750Z,26.22
2022-10-01T16:47:53.450Z,26.05
2022-10-01T16:50:21.882Z,26.02
2022-10-01T16:52:52.532Z,25.96
2022-10-01T16:55:24.095Z,25.89
2022-10-01T16:57:52.938Z,25.92
2022-10-01T17:00:21.959Z,25.86
2022-10-01T17:02:48.768Z,25.81
2022-10-01T17:05:25.575Z,25.74
2022-10-01T17:07:53.071Z,25.74
2022-10-01T17:10:22.533Z,25.69
2022-10-01T17:12:49.984Z,25.68
2022-10-01T17:15:20.051Z,25.64
2022-10-01T17:17:47.101Z,25.58
2022-10-01T17:20:13.885Z,25.54
2022-10-01T17:22:43.156Z,25.48
2022-10-01T17:25:22.011Z,25.43
2022-10-01T17:27:49.322Z,25.37
2022-10-01T17:30:16.870Z,25.30
2022-10-01T17:32:44.921Z,25.31
2022-10-01T17:35:13.303Z,25.30
2022-10-01T17:37:41.510Z,25.25
2022-10-01T17:40:10.506Z,25.24
2022-10-01T17:42:37.263Z,25.17
2022-10-01T17:45:06.930Z,25.14
2022-10-01T17:47:34.131Z,25.30
2022-10-01T17:50:01.280Z,25.30
2022-10-01T17:52:28.044Z,25.32
2022-10-01T17:54:54.846Z,25.23
2022-10-01T17:57:21.584Z,25.06
2022-10-01T17:59:48.242Z,24.82
2022-10-01T18:02:39.616Z,24.77
2022-10-01T18:05:03.998Z,24.72
2022-10-01T18:07:30.736Z,24.59
2022-10-01T18:09:57.581Z,24.29
2022-10-01T18:12:24.368Z,24.23
2022-10-01T18:14:51.115Z,24.20
2022-10-01T18:17:18.123Z,24.37
2022-10-01T18:19:53.689Z,24.31
2022-10-01T18:22:21.334Z,23.93
2022-10-01T18:24:48.180Z,23.94
2022-10-01T18:27:15.031Z,23.72
2022-10-01T18:29:41.821Z,23.98
2022-10-01T18:32:27.239Z,24.11
2022-10-01T18:35:13.545Z,24.06
2022-10-01T18:37:49.928Z,23.85
2022-10-01T18:40:29.073Z,23.72
2022-10-01T18:43:08.480Z,23.69
2022-10-01T18:45:53.285Z,23.61
2022-10-01T18:48:50.939Z,23.64
2022-10-01T18:51:27.203Z,23.44
2022-10-01T18:54:21.716Z,23.36
2022-10-01T18:56:54.452Z,23.38
2022-10-01T18:59:50.588Z,23.45
2022-10-01T19:02:52.272Z,23.48
2022-10-01T19:05:49.922Z,23.41
2022-10-01T19:08:24.891Z,23.45
2022-10-01T19:11:03.571Z,23.32
2022-10-01T19:13:47.818Z,23.59
2022-10-01T19:16:17.409Z,23.31
2022-10-01T19:18:56.843Z,22.92
2022-10-01T19:21:36.121Z,22.95
2022-10-01T19:24:37.261Z,22.78
2022-10-01T19:27:26.402Z,22.58
2022-10-01T19:30:12.453Z,22.62
2022-10-01T19:32:45.977Z,22.46
2022-10-01T19:35:19.194Z,22.46
2022-10-01T19:37:55.231Z,22.48
2022-10-01T19:40:33.919Z,22.60
2022-10-01T19:43:29.873Z,22.64
2022-10-01T19:46:04.840Z,22.89
2022-10-01T19:48:45.895Z,22.98
2022-10-01T19:51:15.376Z,23.06
2022-10-01T19:53:50.151Z,23.08
2022-10-01T19:56:24.262Z,23.08
2022-10-01T19:58:50.917Z,22.91
2022-10-01T20:01:23.912Z,22.88
2022-10-01T20:04:19.034Z,22.87
2022-10-01T20:06:47.008Z,22.77
2022-10-01T20:09:28.709Z,22.65
2022-10-01T20:12:09.525Z,22.45
2022-10-01T20:15:00.689Z,22.50
2022-10-01T20:17:47.910Z,22.59
2022-10-01T20:20:21.177Z,22.67
2022-10-01T20:22:57.900Z,22.73
2022-10-01T20:25:43.157Z,22.79
2022-10-01T20:28:31.026Z,23.10
2022-10-01T20:31:07.619Z,23.07
2022-10-01T20:34:00.205Z,23.23
2022-10-01T20:37:09.467Z,23.20
2022-10-01T20:39:42.004Z,23.16
2022-10-01T20:42:19.762Z,22.76
2022-10-01T20:44:47.292Z,22.41
2022-10-01T20:47:23.825Z,21.84
2022-10-01T20:50:21.411Z,21.86
2022-10-01T20:53:25.434Z,21.64
2022-10-01T20:55:59.319Z,21.59
2022-10-01T20:58:43.735Z,21.39
2022-10-01T21:01:20.633Z,21.53
2022-10-01T21:03:53.910Z,21.44
2022-10-01T21:06:26.703Z,21.53
2022-10-01T21:09:03.354Z,21.50
2022-10-01T21:11:41.621Z,21.45
2022-10-01T21:14:29.121Z,21.57
2022-10-01T21:17:05.277Z,21.64
2022-10-01T21:19:50.106Z,21.71
2022-10-01T21:22:53.882Z,21.78
2022-10-01T21:25:20.638Z,21.76
2022-10-01T21:27:53.470Z,21.91
2022-10-01T21:30:21.698Z,22.11
2022-10-01T21:33:06.911Z,22.30
2022-10-01T21:35:50.706Z,22.26
2022-10-01T21:38:39.225Z,22.36
2022-10-01T21:41:27.579Z,22.34
2022-10-01T21:44:25.062Z,22.42
2022-10-01T21:47:16.347Z,22.45
2022-10-01T21:50:01.199Z,22.42
2022-10-01T21:53:06.867Z,22.33
2022-10-01T21:55:33.513Z,22.38
2022-10-01T21:58:11.779Z,21.73
2022-10-01T22:00:38.490Z,21.40
2022-10-01T22:03:11.216Z,21.50
2022-10-01T22:05:57.249Z,20.78
2022-10-01T22:08:34.585Z,20.63
2022-10-01T22:11:07.596Z,20.81
2022-10-01T22:13:38.546Z,20.92
2022-10-01T22:16:13.982Z,21.00
2022-10-01T22:18:46.140Z,20.99
2022-10-01T22:24:20.288Z,20.59
2022-10-01T22:26:57.820Z,20.91
2022-10-01T22:29:29.212Z,20.67
2022-10-01T22:32:03.165Z,20.21
2022-10-01T22:34:37.866Z,20.08
2022-10-01T22:37:18.909Z,20.08
2022-10-01T22:40:01.164Z,20.12
2022-10-01T22:42:35.519Z,20.38
2022-10-01T22:45:12.541Z,20.58
2022-10-01T22:47:42.187Z,20.76
2022-10-01T22:50:28.343Z,20.83
2022-10-01T22:53:24.341Z,20.88
2022-10-01T22:55:56.084Z,20.77
2022-10-01T22:58:35.256Z,20.79
2022-10-01T23:01:05.022Z,20.89
2022-10-01T23:04:09.767Z,20.85
2022-10-01T23:06:42.405Z,20.75
2022-10-01T23:09:08.972Z,20.14
2022-10-01T23:12:01.831Z,19.51
2022-10-01T23:14:31.263Z,18.96
2022-10-01T23:17:09.000Z,19.17
2022-10-01T23:19:47.734Z,19.51
2022-10-01T23:22:20.511Z,19.15
2022-10-01T23:25:11.497Z,19.07
2022-10-01T23:27:56.202Z,19.03
2022-10-01T23:30:22.989Z,19.26
2022-10-01T23:33:10.978Z,19.38
2022-10-01T23:35:57.452Z,19.38
2022-10-01T23:38:40.663Z,19.55
2022-10-01T23:41:36.448Z,19.83
2022-10-01T23:44:14.475Z,19.89
2022-10-01T23:46:44.909Z,20.07
2022-10-01T23:49:15.590Z,19.89
2022-10-01T23:51:55.841Z,19.84
2022-10-01T23:54:35.486Z,19.83
2022-10-01T23:57:14.368Z,19.75
2022-10-01T23:59:46.246Z,19.89
